createdAt,value
2023-05-06T00:00:09.623Z,48.92
2023-05-06T00:02:39.400Z,48.35
2023-05-06T00:05:07.257Z,48.33
2023-05-06T00:07:34.741Z,48.17
2023-05-06T00:10:01.800Z,48.39
2023-05-06T00:12:28.770Z,48.53
2023-05-06T00:14:55.876Z,49.07
2023-05-06T00:17:22.883Z,50.31
2023-05-06T00:19:49.945Z,48.90
2023-05-06T00:22:17.333Z,49.46
2023-05-06T00:24:44.506Z,49.60
2023-05-06T00:27:11.506Z,50.21
2023-05-06T00:29:38.630Z,50.06
2023-05-06T00:32:06.124Z,49.83
2023-05-06T00:34:33.225Z,49.83
2023-05-06T00:37:00.218Z,49.15
2023-05-06T00:39:27.192Z,49.40
2023-05-06T00:41:54.241Z,48.92
2023-05-06T00:44:21.548Z,49.35
2023-05-06T00:46:48.501Z,49.92
2023-05-06T00:49:15.632Z,50.27
2023-05-06T00:51:42.749Z,51.30
2023-05-06T00:54:09.703Z,51.21
2023-05-06T00:56:37.078Z,50.61
2023-05-06T00:59:04.468Z,50.17
2023-05-06T01:01:31.731Z,50.17
2023-05-06T01:03:59.457Z,51.06
2023-05-06T01:06:32.818Z,51.39
2023-05-06T01:09:13.069Z,52.31
2023-05-06T01:11:47.817Z,52.10
2023-05-06T01:14:23.269Z,51.49
2023-05-06T01:16:53.774Z,51.60
2023-05-06T01:19:42.315Z,51.27
2023-05-06T01:22:10.544Z,52.22
2023-05-06T01:24:37.921Z,51.83
2023-05-06T01:27:05.220Z,51.62
2023-05-06T01:29:32.991Z,50.88
2023-05-06T01:32:07.589Z,51.24
2023-05-06T01:34:46.619Z,51.56
2023-05-06T01:37:32.618Z,50.20
2023-05-06T01:40:00.498Z,51.45
2023-05-06T01:42:27.607Z,51.21
2023-05-06T01:44:55.480Z,50.65
2023-05-06T01:47:22.428Z,51.07
2023-05-06T01:49:49.437Z,51.50
2023-05-06T01:52:16.780Z,51.05
2023-05-06T01:54:44.984Z,50.82
2023-05-06T01:57:12.118Z,50.88
2023-05-06T01:59:39.241Z,51.18
2023-05-06T02:02:06.881Z,51.61
2023-05-06T02:04:34.080Z,51.28
2023-05-06T02:07:01.266Z,51.76
2023-05-06T02:09:28.333Z,51.25
2023-05-06T02:12:00.402Z,51.27
2023-05-06T02:14:27.435Z,51.63
2023-05-06T02:16:55.516Z,51.41
2023-05-06T02:19:22.599Z,51.34
2023-05-06T02:21:49.597Z,50.94
2023-05-06T02:24:16.661Z,51.25
2023-05-06T02:26:43.622Z,51.21
2023-05-06T02:29:10.794Z,51.28
2023-05-06T02:31:38.220Z,51.56
2023-05-06T02:34:05.615Z,51.40
2023-05-06T02:36:33.402Z,51.27
2023-05-06T02:39:00.407Z,51.64
2023-05-06T02:41:27.828Z,52.01
2023-05-06T02:43:54.896Z,52.07
2023-05-06T02:46:22.259Z,52.14
2023-05-06T02:48:49.434Z,52.19
2023-05-06T02:51:16.397Z,52.14
2023-05-06T02:53:43.554Z,52.50
2023-05-06T02:56:11.080Z,52.29
2023-05-06T02:58:38.186Z,52.60
2023-05-06T03:01:05.586Z,52.47
2023-05-06T03:03:33.473Z,52.37
2023-05-06T03:06:00.796Z,52.45
2023-05-06T03:08:28.203Z,52.28
2023-05-06T03:10:55.491Z,52.27
2023-05-06T03:13:23.442Z,52.79
2023-05-06T03:15:54.411Z,52.66
2023-05-06T03:18:21.998Z,52.69
2023-05-06T03:20:49.898Z,52.40
2023-05-06T03:23:17.115Z,52.07
2023-05-06T03:25:44.547Z,52.06
2023-05-06T03:28:12.043Z,51.76
2023-05-06T03:30:40.275Z,51.61
2023-05-06T03:33:08.073Z,51.93
2023-05-06T03:35:35.327Z,51.60
2023-05-06T03:38:02.808Z,51.47
2023-05-06T03:40:36.242Z,51.32
2023-05-06T03:43:03.924Z,51.16
2023-05-06T03:45:31.044Z,51.11
2023-05-06T03:47:59.489Z,50.74
2023-05-06T03:50:27.473Z,50.21
2023-05-06T03:52:54.846Z,50.12
2023-05-06T03:55:23.887Z,49.58
2023-05-06T03:57:51.314Z,49.21
2023-05-06T04:00:19.150Z,49.11
2023-05-06T04:02:46.878Z,48.87
2023-05-06T04:05:19.812Z,48.72
2023-05-06T04:07:47.436Z,48.65
2023-05-06T04:10:14.799Z,48.62
2023-05-06T04:12:43.477Z,48.44
2023-05-06T04:15:11.806Z,48.09
2023-05-06T04:17:39.247Z,48.33
2023-05-06T04:20:11.728Z,48.30
2023-05-06T04:22:39.614Z,47.94
2023-05-06T04:26:38.164Z,51.94
2023-05-06T04:29:05.180Z,47.64
2023-05-06T04:31:34.597Z,47.17
2023-05-06T04:34:04.170Z,46.87
2023-05-06T04:36:31.654Z,46.68
2023-05-06T04:39:10.253Z,46.21
2023-05-06T04:41:37.576Z,46.18
2023-05-06T04:44:04.788Z,45.79
2023-05-06T04:46:33.858Z,45.63
2023-05-06T04:49:01.629Z,45.70
2023-05-06T04:51:29.165Z,45.53
2023-05-06T04:53:56.288Z,45.33
2023-05-06T04:56:23.269Z,44.89
2023-05-06T04:58:50.238Z,44.69
2023-05-06T05:01:18.853Z,44.61
2023-05-06T05:03:45.908Z,44.39
2023-05-06T05:06:13.387Z,44.14
2023-05-06T05:08:41.502Z,43.65
2023-05-06T05:11:08.918Z,43.51
2023-05-06T05:13:35.761Z,42.96
2023-05-06T05:16:03.810Z,43.06
2023-05-06T05:18:31.939Z,43.57
2023-05-06T05:21:03.483Z,42.86
2023-05-06T05:23:31.075Z,43.21
2023-05-06T05:25:58.635Z,42.89
2023-05-06T05:28:25.505Z,42.52
2023-05-06T05:30:54.282Z,42.17
2023-05-06T05:33:22.035Z,42.02
2023-05-06T05:35:48.832Z,41.76
2023-05-06T05:38:16.576Z,41.57
2023-05-06T05:40:43.928Z,41.40
2023-05-06T05:43:11.466Z,41.35
2023-05-06T05:45:39.333Z,40.84
2023-05-06T05:48:06.518Z,41.03
2023-05-06T05:50:35.184Z,40.50
2023-05-06T05:53:02.371Z,40.26
2023-05-06T05:55:30.397Z,39.98
2023-05-06T05:57:57.316Z,39.08
2023-05-06T06:00:25.014Z,38.60
2023-05-06T06:02:53.113Z,39.09
2023-05-06T06:05:20.640Z,38.95
2023-05-06T06:07:47.775Z,38.59
2023-05-06T06:10:14.886Z,38.11
2023-05-06T06:12:44.086Z,38.51
2023-05-06T06:15:11.807Z,37.01
2023-05-06T06:17:40.973Z,37.87
2023-05-06T06:20:08.966Z,37.71
2023-05-06T06:22:36.408Z,36.85
2023-05-06T06:25:03.744Z,35.34
2023-05-06T06:27:35.309Z,35.77
2023-05-06T06:30:04.693Z,34.06
2023-05-06T06:32:32.591Z,35.19
2023-05-06T06:34:59.556Z,34.76
2023-05-06T06:37:26.476Z,34.39
2023-05-06T06:39:53.226Z,33.88
2023-05-06T06:42:19.959Z,33.76
2023-05-06T06:44:59.231Z,33.52
2023-05-06T06:47:26.079Z,33.46
2023-05-06T06:49:52.907Z,33.16
2023-05-06T06:52:19.755Z,32.35
2023-05-06T06:54:46.702Z,32.70
2023-05-06T06:57:13.677Z,32.70
2023-05-06T06:59:40.953Z,31.61
2023-05-06T07:02:08.249Z,32.11
2023-05-06T07:04:35.201Z,31.57
2023-05-06T07:07:02.293Z,31.63
2023-05-06T07:09:29.260Z,31.38
2023-05-06T07:11:56.229Z,31.73
2023-05-06T07:14:25.256Z,31.79
2023-05-06T07:16:52.453Z,31.45
2023-05-06T07:19:19.719Z,31.00
2023-05-06T07:21:47.918Z,31.02
2023-05-06T07:24:14.884Z,31.33
2023-05-06T07:26:41.918Z,29.91
2023-05-06T07:29:08.748Z,30.64
2023-05-06T07:31:35.636Z,30.39
2023-05-06T07:34:02.951Z,30.48
2023-05-06T07:36:34.704Z,30.79
2023-05-06T07:39:01.872Z,30.35
2023-05-06T07:41:28.740Z,30.16
2023-05-06T07:43:55.958Z,29.93
2023-05-06T07:46:23.077Z,30.01
2023-05-06T07:48:50.090Z,29.35
2023-05-06T07:51:17.460Z,28.77
2023-05-06T07:53:44.861Z,29.49
2023-05-06T07:56:12.063Z,29.11
2023-05-06T07:58:39.118Z,29.20
2023-05-06T08:01:06.059Z,29.44
2023-05-06T08:03:33.165Z,29.15
2023-05-06T08:06:00.954Z,28.64
2023-05-06T08:08:27.979Z,27.97
2023-05-06T08:10:55.433Z,27.99
2023-05-06T08:13:23.441Z,28.06
2023-05-06T08:15:50.873Z,28.25
2023-05-06T08:18:22.357Z,28.03
2023-05-06T08:20:51.016Z,27.44
2023-05-06T08:23:18.112Z,26.59
2023-05-06T08:25:46.016Z,27.18
2023-05-06T08:28:13.259Z,26.94
2023-05-06T08:30:40.171Z,26.71
2023-05-06T08:33:06.978Z,26.48
2023-05-06T08:35:34.515Z,26.60
2023-05-06T08:38:01.700Z,26.33
2023-05-06T08:40:28.869Z,26.30
2023-05-06T08:42:57.300Z,25.82
2023-05-06T08:45:24.136Z,26.05
2023-05-06T08:47:51.652Z,26.05
2023-05-06T08:50:18.731Z,26.47
2023-05-06T08:52:45.986Z,26.05
2023-05-06T08:55:13.112Z,26.36
2023-05-06T08:57:40.064Z,25.68
2023-05-06T09:00:10.446Z,25.71
2023-05-06T09:02:40.550Z,25.02
2023-05-06T09:05:10.459Z,25.74
2023-05-06T09:07:39.505Z,25.64
2023-05-06T09:10:13.103Z,25.38
2023-05-06T09:12:40.583Z,25.56
2023-05-06T09:15:09.082Z,25.34
2023-05-06T09:17:36.552Z,25.43
2023-05-06T09:20:05.808Z,25.16
2023-05-06T09:22:33.496Z,25.40
2023-05-06T09:25:00.758Z,25.52
2023-05-06T09:27:28.696Z,25.12
2023-05-06T09:30:08.449Z,24.43
2023-05-06T09:32:38.167Z,24.94
2023-05-06T09:35:08.868Z,24.89
2023-05-06T09:37:36.257Z,24.39
2023-05-06T09:40:03.442Z,24.02
2023-05-06T09:42:30.911Z,24.82
2023-05-06T09:45:01.348Z,24.55
2023-05-06T09:47:33.765Z,24.30
2023-05-06T09:50:01.764Z,24.30
2023-05-06T09:52:28.937Z,24.07
2023-05-06T09:54:55.853Z,24.30
2023-05-06T09:57:23.157Z,23.92
2023-05-06T09:59:51.710Z,24.09
2023-05-06T10:02:19.306Z,23.73
2023-05-06T10:04:46.602Z,23.51
2023-05-06T10:07:13.629Z,23.55
2023-05-06T10:09:40.803Z,23.88
2023-05-06T10:12:08.317Z,23.70
2023-05-06T10:14:38.262Z,23.54
2023-05-06T10:17:08.691Z,23.52
2023-05-06T10:19:36.045Z,23.09
2023-05-06T10:22:07.893Z,23.53
2023-05-06T10:24:41.205Z,23.20
2023-05-06T10:27:08.153Z,23.09
2023-05-06T10:29:35.639Z,23.11
2023-05-06T10:32:03.577Z,22.92
2023-05-06T10:34:32.651Z,22.75
2023-05-06T10:36:59.651Z,22.61
2023-05-06T10:39:26.567Z,22.73
2023-05-06T10:41:53.650Z,21.85
2023-05-06T10:44:57.012Z,21.90
2023-05-06T10:47:23.981Z,21.89
2023-05-06T10:50:23.099Z,21.46
2023-05-06T10:52:55.059Z,20.95
2023-05-06T10:55:32.320Z,21.67
2023-05-06T10:58:02.254Z,21.43
2023-05-06T11:00:33.291Z,21.60
2023-05-06T11:03:07.479Z,22.19
2023-05-06T11:05:48.437Z,21.57
2023-05-06T11:08:24.511Z,21.42
2023-05-06T11:10:54.505Z,21.05
2023-05-06T11:13:29.558Z,20.88
2023-05-06T11:15:57.089Z,21.28
2023-05-06T11:18:24.386Z,21.23
2023-05-06T11:21:01.987Z,21.48
2023-05-06T11:23:41.354Z,21.34
2023-05-06T11:26:11.729Z,21.26
2023-05-06T11:28:45.330Z,21.39
2023-05-06T11:31:13.243Z,21.10
2023-05-06T11:33:49.322Z,20.98
2023-05-06T11:36:17.467Z,21.05
2023-05-06T11:38:53.678Z,20.65
2023-05-06T11:41:22.341Z,20.72
2023-05-06T11:43:50.189Z,21.08
2023-05-06T11:46:18.285Z,21.00
2023-05-06T11:48:45.687Z,21.03
2023-05-06T11:51:12.591Z,20.70
2023-05-06T11:53:40.021Z,20.52
2023-05-06T11:56:07.249Z,20.52
2023-05-06T11:58:34.195Z,20.34
2023-05-06T12:01:02.447Z,20.40
2023-05-06T12:03:31.015Z,20.72
2023-05-06T12:05:58.554Z,20.21
2023-05-06T12:08:31.268Z,20.46
2023-05-06T12:11:02.612Z,20.29
2023-05-06T12:13:30.947Z,20.89
2023-05-06T12:15:58.682Z,20.60
2023-05-06T12:18:25.822Z,20.18
2023-05-06T12:20:56.117Z,20.63
2023-05-06T12:23:23.510Z,20.36
2023-05-06T12:26:03.337Z,20.26
2023-05-06T12:28:31.053Z,20.30
2023-05-06T12:30:57.909Z,19.80
2023-05-06T12:33:25.026Z,20.37
2023-05-06T12:35:54.165Z,20.34
2023-05-06T12:38:20.894Z,20.30
2023-05-06T12:40:54.093Z,20.45
2023-05-06T12:43:30.792Z,19.92
2023-05-06T12:46:05.821Z,20.50
2023-05-06T12:48:33.210Z,20.29
2023-05-06T12:51:02.100Z,19.85
2023-05-06T12:53:33.784Z,19.49
2023-05-06T12:56:00.810Z,19.92
2023-05-06T12:58:27.760Z,20.02
2023-05-06T13:00:54.597Z,20.04
2023-05-06T13:03:22.144Z,19.33
2023-05-06T13:05:51.190Z,19.88
2023-05-06T13:08:18.894Z,19.96
2023-05-06T13:10:46.235Z,20.06
2023-05-06T13:13:13.274Z,19.56
2023-05-06T13:15:40.758Z,19.99
2023-05-06T13:18:08.301Z,19.73
2023-05-06T13:20:36.076Z,19.48
2023-05-06T13:23:03.474Z,19.43
2023-05-06T13:25:30.461Z,19.67
2023-05-06T13:27:57.573Z,19.72
2023-05-06T13:30:24.496Z,19.81
2023-05-06T13:32:51.928Z,19.53
2023-05-06T13:35:18.717Z,19.67
2023-05-06T13:37:45.469Z,19.62
2023-05-06T13:40:13.241Z,19.68
2023-05-06T13:42:40.126Z,19.34
2023-05-06T13:45:07.878Z,18.88
2023-05-06T13:47:37.282Z,19.33
2023-05-06T13:50:05.203Z,19.40
2023-05-06T13:52:32.935Z,19.29
2023-05-06T13:55:04.366Z,19.52
2023-05-06T13:57:32.590Z,19.51
2023-05-06T13:59:59.462Z,19.61
2023-05-06T14:02:26.528Z,19.21
2023-05-06T14:04:54.661Z,19.53
2023-05-06T14:07:21.718Z,19.24
2023-05-06T14:09:48.736Z,19.03
2023-05-06T14:12:15.679Z,19.51
2023-05-06T14:14:42.679Z,19.30
2023-05-06T14:17:09.736Z,19.33
2023-05-06T14:19:36.525Z,19.36
2023-05-06T14:22:03.597Z,18.80
2023-05-06T14:24:30.726Z,19.19
2023-05-06T14:26:57.730Z,19.06
2023-05-06T14:29:24.980Z,19.16
2023-05-06T14:31:53.171Z,19.29
2023-05-06T14:34:20.331Z,19.10
2023-05-06T14:36:47.280Z,19.20
2023-05-06T14:39:14.330Z,19.01
2023-05-06T14:41:41.289Z,18.89
2023-05-06T14:44:08.146Z,19.00
2023-05-06T14:46:35.557Z,18.91
2023-05-06T14:49:02.396Z,18.94
2023-05-06T14:51:29.655Z,18.93
2023-05-06T14:53:56.624Z,19.09
2023-05-06T14:56:23.701Z,18.88
2023-05-06T14:58:51.098Z,19.00
2023-05-06T15:01:18.080Z,18.52
2023-05-06T15:03:45.084Z,18.90
2023-05-06T15:06:12.187Z,18.69
2023-05-06T15:08:39.246Z,18.91
2023-05-06T15:11:06.023Z,18.73
2023-05-06T15:13:33.266Z,18.47
2023-05-06T15:16:00.208Z,18.90
2023-05-06T15:18:28.456Z,18.57
2023-05-06T15:20:58.229Z,18.35
2023-05-06T15:23:25.335Z,18.40
2023-05-06T15:25:52.043Z,18.35
2023-05-06T15:28:19.012Z,18.34
2023-05-06T15:30:45.869Z,18.03
2023-05-06T15:33:12.782Z,18.26
2023-05-06T15:35:39.882Z,18.22
2023-05-06T15:38:06.700Z,18.33
2023-05-06T15:40:34.166Z,18.32
2023-05-06T15:43:01.071Z,18.66
2023-05-06T15:45:28.110Z,18.44
2023-05-06T15:47:55.668Z,18.57
2023-05-06T15:50:32.963Z,18.38
2023-05-06T15:53:01.490Z,18.35
2023-05-06T15:55:29.083Z,18.79
2023-05-06T15:57:57.358Z,18.73
2023-05-06T16:00:25.504Z,18.36
2023-05-06T16:02:52.746Z,18.78
2023-05-06T16:05:19.568Z,18.68
2023-05-06T16:07:46.709Z,18.68
2023-05-06T16:10:13.798Z,18.74
2023-05-06T16:12:41.456Z,18.70
2023-05-06T16:15:09.125Z,18.86
2023-05-06T16:17:37.426Z,19.08
2023-05-06T16:20:05.327Z,19.24
2023-05-06T16:22:32.441Z,19.39
2023-05-06T16:24:59.317Z,19.72
2023-05-06T16:27:29.812Z,19.59
2023-05-06T16:29:56.635Z,19.62
2023-05-06T16:32:23.915Z,19.67
2023-05-06T16:34:51.202Z,19.82
2023-05-06T16:37:18.177Z,20.01
2023-05-06T16:42:23.457Z,21.67
2023-05-06T16:44:51.788Z,20.85
2023-05-06T16:47:23.523Z,20.90
2023-05-06T16:49:51.264Z,21.02
2023-05-06T16:52:19.090Z,21.19
2023-05-06T16:54:46.105Z,21.38
2023-05-06T16:57:13.513Z,21.51
2023-05-06T16:59:40.552Z,21.61
2023-05-06T17:02:07.840Z,21.89
2023-05-06T17:04:35.198Z,22.60
2023-05-06T17:07:02.376Z,22.78
2023-05-06T17:09:29.870Z,23.05
2023-05-06T17:11:57.215Z,23.42
2023-05-06T17:14:24.347Z,23.64
2023-05-06T17:16:52.288Z,24.13
2023-05-06T17:19:19.751Z,24.54
2023-05-06T17:21:47.081Z,24.57
2023-05-06T17:24:14.233Z,24.72
2023-05-06T17:26:42.084Z,25.02
2023-05-06T17:29:09.068Z,25.60
2023-05-06T17:31:36.037Z,25.62
2023-05-06T17:34:04.065Z,26.07
2023-05-06T17:36:31.837Z,25.18
2023-05-06T17:39:06.077Z,25.12
2023-05-06T17:41:33.778Z,24.90
2023-05-06T17:44:01.158Z,25.55
2023-05-06T17:46:28.434Z,26.56
2023-05-06T17:48:55.712Z,26.69
2023-05-06T17:51:23.020Z,26.45
2023-05-06T17:53:50.104Z,26.37
2023-05-06T17:56:17.295Z,26.99
2023-05-06T17:58:44.347Z,27.64
2023-05-06T18:01:11.882Z,27.63
2023-05-06T18:03:39.655Z,27.39
2023-05-06T18:06:06.754Z,27.80
2023-05-06T18:08:34.061Z,29.59
2023-05-06T18:11:01.386Z,29.05
2023-05-06T18:13:28.404Z,28.46
2023-05-06T18:15:55.685Z,28.21
2023-05-06T18:18:22.871Z,28.16
2023-05-06T18:20:50.283Z,27.87
2023-05-06T18:23:17.431Z,27.66
2023-05-06T18:25:44.508Z,28.07
2023-05-06T18:28:12.273Z,28.62
2023-05-06T18:30:39.302Z,28.66
2023-05-06T18:33:06.427Z,28.47
2023-05-06T18:35:33.836Z,28.45
2023-05-06T18:38:01.174Z,28.48
2023-05-06T18:40:28.590Z,28.29
2023-05-06T18:42:56.719Z,28.09
2023-05-06T18:45:24.668Z,28.26
2023-05-06T18:47:51.836Z,27.77
2023-05-06T18:50:18.846Z,28.46
2023-05-06T18:52:46.212Z,29.18
2023-05-06T18:55:13.498Z,28.84
2023-05-06T18:57:40.778Z,29.57
2023-05-06T19:00:08.989Z,29.56
2023-05-06T19:02:36.283Z,29.31
2023-05-06T19:05:03.567Z,29.52
2023-05-06T19:07:30.688Z,28.91
2023-05-06T19:09:57.649Z,29.42
2023-05-06T19:12:24.854Z,29.82
2023-05-06T19:14:52.214Z,29.66
2023-05-06T19:17:19.751Z,28.92
2023-05-06T19:19:49.315Z,29.44
2023-05-06T19:22:16.542Z,29.66
2023-05-06T19:24:43.694Z,29.51
2023-05-06T19:27:10.821Z,30.01
2023-05-06T19:29:38.127Z,30.19
2023-05-06T19:32:05.767Z,30.28
2023-05-06T19:34:32.758Z,28.53
2023-05-06T19:36:59.860Z,28.84
2023-05-06T19:39:27.002Z,29.68
2023-05-06T19:41:55.774Z,30.19
2023-05-06T19:44:22.910Z,30.50
2023-05-06T19:46:52.478Z,30.25
2023-05-06T19:49:19.564Z,30.58
2023-05-06T19:51:46.633Z,30.09
2023-05-06T19:54:13.901Z,30.22
2023-05-06T19:56:40.958Z,29.69
2023-05-06T19:59:08.122Z,30.96
2023-05-06T20:01:35.275Z,30.51
2023-05-06T20:04:02.518Z,30.51
2023-05-06T20:06:31.532Z,30.84
2023-05-06T20:08:58.550Z,30.94
2023-05-06T20:11:25.916Z,29.36
2023-05-06T20:13:53.292Z,30.67
2023-05-06T20:16:20.385Z,30.53
2023-05-06T20:18:47.872Z,31.08
2023-05-06T20:21:17.868Z,31.91
2023-05-06T20:23:44.893Z,31.27
2023-05-06T20:26:12.277Z,31.82
2023-05-06T20:28:39.551Z,31.75
2023-05-06T20:31:07.008Z,31.65
2023-05-06T20:33:34.042Z,32.10
2023-05-06T20:36:01.199Z,31.97
2023-05-06T20:38:30.240Z,31.94
2023-05-06T20:40:58.991Z,32.32
2023-05-06T20:43:26.264Z,32.44
2023-05-06T20:45:53.270Z,32.74
2023-05-06T20:48:20.514Z,33.23
2023-05-06T20:50:47.665Z,33.32
2023-05-06T20:53:15.016Z,32.37
2023-05-06T20:55:42.172Z,29.71
2023-05-06T20:58:09.317Z,29.32
2023-05-06T21:00:36.438Z,29.50
2023-05-06T21:03:03.584Z,29.09
2023-05-06T21:05:30.751Z,28.79
2023-05-06T21:07:57.828Z,31.40
2023-05-06T21:10:24.824Z,32.21
2023-05-06T21:12:51.938Z,31.18
2023-05-06T21:15:19.521Z,31.05
2023-05-06T21:17:46.979Z,30.77
2023-05-06T21:20:14.261Z,30.67
2023-05-06T21:22:41.252Z,31.17
2023-05-06T21:25:09.080Z,31.15
2023-05-06T21:27:36.707Z,31.16
2023-05-06T21:30:03.947Z,31.56
2023-05-06T21:32:33.308Z,31.37
2023-05-06T21:35:03.804Z,31.93
2023-05-06T21:37:30.772Z,31.83
2023-05-06T21:39:58.135Z,31.31
2023-05-06T21:42:25.161Z,31.97
2023-05-06T21:44:52.355Z,31.98
2023-05-06T21:47:19.364Z,32.21
2023-05-06T21:49:46.406Z,30.31
2023-05-06T21:52:13.809Z,29.86
2023-05-06T21:54:40.830Z,29.74
2023-05-06T21:57:09.221Z,29.88
2023-05-06T21:59:36.391Z,30.08
2023-05-06T22:02:03.736Z,29.84
2023-05-06T22:04:31.190Z,29.64
2023-05-06T22:06:58.247Z,29.68
2023-05-06T22:09:25.290Z,29.84
2023-05-06T22:11:52.386Z,30.25
2023-05-06T22:14:21.903Z,30.50
2023-05-06T22:16:52.860Z,30.40
2023-05-06T22:19:20.372Z,30.09
2023-05-06T22:21:47.706Z,29.87
2023-05-06T22:24:14.964Z,30.01
2023-05-06T22:26:42.525Z,30.06
2023-05-06T22:29:09.547Z,30.17
2023-05-06T22:31:36.955Z,30.20
2023-05-06T22:34:04.906Z,30.35
2023-05-06T22:36:34.826Z,30.19
2023-05-06T22:39:01.994Z,30.01
2023-05-06T22:41:30.325Z,29.91
2023-05-06T22:43:57.527Z,30.20
2023-05-06T22:46:24.702Z,31.12
2023-05-06T22:48:51.934Z,30.17
2023-05-06T22:51:20.491Z,31.46
2023-05-06T22:53:48.116Z,30.44
2023-05-06T22:56:15.395Z,30.06
2023-05-06T22:58:42.671Z,29.82
2023-05-06T23:01:09.786Z,29.96
2023-05-06T23:03:36.922Z,29.97
2023-05-06T23:06:06.283Z,29.65
2023-05-06T23:08:33.350Z,29.76
2023-05-06T23:11:00.887Z,29.81
2023-05-06T23:13:27.974Z,30.03
2023-05-06T23:15:55.064Z,30.97
2023-05-06T23:18:22.141Z,30.03
2023-05-06T23:20:49.165Z,30.01
2023-05-06T23:23:16.211Z,29.90
2023-05-06T23:25:43.249Z,30.27
2023-05-06T23:28:10.496Z,30.66
2023-05-06T23:30:37.719Z,30.13
2023-05-06T23:33:04.738Z,30.08
2023-05-06T23:35:32.544Z,30.08
2023-05-06T23:37:59.559Z,30.18
2023-05-06T23:40:26.674Z,30.29
2023-05-06T23:42:53.688Z,30.21
2023-05-06T23:45:20.609Z,30.28
2023-05-06T23:47:48.081Z,30.36
2023-05-06T23:50:15.168Z,30.38
2023-05-06T23:52:42.320Z,30.23
2023-05-06T23:55:09.938Z,30.12
2023-05-06T23:57:37.169Z,30.33
